sensor_id;sensor_type;location;lat;lon;timestamp;pressure;altitude;pressure_sealevel;temperature
66403;BMP180;53212;52.112;5.144;2022-08-19T01:21:02;101364.00;;;17.80
66403;BMP180;53212;52.112;5.144;2022-08-19T01:23:30;101363.40;;;17.80
66403;BMP180;53212;52.112;5.144;2022-08-19T01:26:20;101359.20;;;17.70
66403;BMP180;53212;52.112;5.144;2022-08-19T01:28:50;101364.60;;;17.70
66403;BMP180;53212;52.112;5.144;2022-08-19T01:31:20;101362.00;;;17.70
66403;BMP180;53212;52.112;5.144;2022-08-19T01:33:48;101367.60;;;17.70
66403;BMP180;53212;52.112;5.144;2022-08-19T01:36:27;101362.80;;;17.70
66403;BMP180;53212;52.112;5.144;2022-08-19T01:38:57;101372.00;;;17.70
66403;BMP180;53212;52.112;5.144;2022-08-19T01:41:26;101373.60;;;17.68
66403;BMP180;53212;52.112;5.144;2022-08-19T01:43:54;101377.00;;;17.64
66403;BMP180;53212;52.112;5.144;2022-08-19T01:46:21;101381.80;;;17.66
66403;BMP180;53212;52.112;5.144;2022-08-19T01:48:49;101384.40;;;17.60
66403;BMP180;53212;52.112;5.144;2022-08-19T01:51:19;101384.00;;;17.60
66403;BMP180;53212;52.112;5.144;2022-08-19T01:53:48;101379.80;;;17.60
66403;BMP180;53212;52.112;5.144;2022-08-19T01:56:14;101381.20;;;17.52
66403;BMP180;53212;52.112;5.144;2022-08-19T01:58:45;101379.40;;;17.50
66403;BMP180;53212;52.112;5.144;2022-08-19T02:01:13;101382.60;;;17.50
66403;BMP180;53212;52.112;5.144;2022-08-19T02:03:41;101383.20;;;17.50
66403;BMP180;53212;52.112;5.144;2022-08-19T02:06:06;101384.40;;;17.50
66403;BMP180;53212;52.112;5.144;2022-08-19T02:08:37;101381.60;;;17.50
66403;BMP180;53212;52.112;5.144;2022-08-19T02:11:04;101379.60;;;17.50
66403;BMP180;53212;52.112;5.144;2022-08-19T02:13:31;101378.20;;;17.40
66403;BMP180;53212;52.112;5.144;2022-08-19T02:15:59;101376.00;;;17.40
66403;BMP180;53212;52.112;5.144;2022-08-19T02:18:25;101385.00;;;17.34
66403;BMP180;53212;52.112;5.144;2022-08-19T02:20:52;101382.00;;;17.30
66403;BMP180;53212;52.112;5.144;2022-08-19T02:23:21;101380.80;;;17.30
66403;BMP180;53212;52.112;5.144;2022-08-19T02:25:48;101374.20;;;17.30
66403;BMP180;53212;52.112;5.144;2022-08-19T02:28:17;101368.00;;;17.30
66403;BMP180;53212;52.112;5.144;2022-08-19T02:30:43;101369.40;;;17.26
66403;BMP180;53212;52.112;5.144;2022-08-19T02:33:09;101374.80;;;17.20
66403;BMP180;53212;52.112;5.144;2022-08-19T02:35:35;101378.80;;;17.20
66403;BMP180;53212;52.112;5.144;2022-08-19T02:38:04;101381.20;;;17.20
66403;BMP180;53212;52.112;5.144;2022-08-19T02:40:53;101380.20;;;17.20
66403;BMP180;53212;52.112;5.144;2022-08-19T02:43:21;101382.00;;;17.20
66403;BMP180;53212;52.112;5.144;2022-08-19T02:45:53;101380.20;;;17.20
66403;BMP180;53212;52.112;5.144;2022-08-19T02:48:22;101376.40;;;17.20
66403;BMP180;53212;52.112;5.144;2022-08-19T02:50:50;101374.00;;;17.22
66403;BMP180;53212;52.112;5.144;2022-08-19T02:53:27;101373.60;;;17.20
66403;BMP180;53212;52.112;5.144;2022-08-19T02:55:54;101366.20;;;17.20
66403;BMP180;53212;52.112;5.144;2022-08-19T02:58:21;101362.20;;;17.10
66403;BMP180;53212;52.112;5.144;2022-08-19T03:00:52;101361.80;;;17.10
66403;BMP180;53212;52.112;5.144;2022-08-19T03:03:19;101364.60;;;17.10
66403;BMP180;53212;52.112;5.144;2022-08-19T03:05:45;101362.00;;;17.10
66403;BMP180;53212;52.112;5.144;2022-08-19T03:08:14;101363.40;;;17.08
66403;BMP180;53212;52.112;5.144;2022-08-19T03:10:48;101364.80;;;17.10
66403;BMP180;53212;52.112;5.144;2022-08-19T03:13:17;101361.80;;;17.10
66403;BMP180;53212;52.112;5.144;2022-08-19T03:15:51;101358.20;;;17.10
66403;BMP180;53212;52.112;5.144;2022-08-19T03:18:16;101358.60;;;17.00
66403;BMP180;53212;52.112;5.144;2022-08-19T03:20:48;101366.00;;;17.00
66403;BMP180;53212;52.112;5.144;2022-08-19T03:23:18;101357.00;;;17.00
66403;BMP180;53212;52.112;5.144;2022-08-19T03:25:47;101355.60;;;17.00
66403;BMP180;53212;52.112;5.144;2022-08-19T03:28:17;101355.40;;;17.00
66403;BMP180;53212;52.112;5.144;2022-08-19T03:30:56;101354.00;;;16.92
66403;BMP180;53212;52.112;5.144;2022-08-19T03:33:22;101352.20;;;16.96
66403;BMP180;53212;52.112;5.144;2022-08-19T03:38:30;101347.00;;;16.90
66403;BMP180;53212;52.112;5.144;2022-08-19T03:41:04;101339.60;;;16.90
66403;BMP180;53212;52.112;5.144;2022-08-19T03:43:36;101340.20;;;16.90
66403;BMP180;53212;52.112;5.144;2022-08-19T03:46:30;101341.40;;;16.90
66403;BMP180;53212;52.112;5.144;2022-08-19T03:49:04;101357.00;;;16.90
66403;BMP180;53212;52.112;5.144;2022-08-19T03:51:37;101351.20;;;16.90
66403;BMP180;53212;52.112;5.144;2022-08-19T03:54:16;101349.60;;;16.80
66403;BMP180;53212;52.112;5.144;2022-08-19T03:59:29;101346.20;;;16.80
66403;BMP180;53212;52.112;5.144;2022-08-19T04:01:59;101353.40;;;16.80
66403;BMP180;53212;52.112;5.144;2022-08-19T04:04:27;101354.60;;;16.80
66403;BMP180;53212;52.112;5.144;2022-08-19T04:06:59;101358.60;;;16.76
66403;BMP180;53212;52.112;5.144;2022-08-19T04:09:28;101363.40;;;16.78
66403;BMP180;53212;52.112;5.144;2022-08-19T04:11:56;101362.40;;;16.70
66403;BMP180;53212;52.112;5.144;2022-08-19T04:14:29;101359.20;;;16.70
66403;BMP180;53212;52.112;5.144;2022-08-19T04:17:00;101357.40;;;16.70
66403;BMP180;53212;52.112;5.144;2022-08-19T04:19:33;101352.40;;;16.70
66403;BMP180;53212;52.112;5.144;2022-08-19T04:22:05;101348.20;;;16.70
66403;BMP180;53212;52.112;5.144;2022-08-19T04:24:31;101345.00;;;16.68
66403;BMP180;53212;52.112;5.144;2022-08-19T04:27:00;101343.20;;;16.60
66403;BMP180;53212;52.112;5.144;2022-08-19T04:29:34;101334.20;;;16.60
66403;BMP180;53212;52.112;5.144;2022-08-19T04:32:00;101337.40;;;16.60
66403;BMP180;53212;52.112;5.144;2022-08-19T04:34:29;101335.60;;;16.60
66403;BMP180;53212;52.112;5.144;2022-08-19T04:36:57;101333.20;;;16.60
66403;BMP180;53212;52.112;5.144;2022-08-19T04:39:29;101331.20;;;16.60
66403;BMP180;53212;52.112;5.144;2022-08-19T04:42:21;101336.80;;;16.60
66403;BMP180;53212;52.112;5.144;2022-08-19T04:45:13;101343.40;;;16.60
66403;BMP180;53212;52.112;5.144;2022-08-19T04:47:41;101347.20;;;16.50
66403;BMP180;53212;52.112;5.144;2022-08-19T04:50:10;101343.60;;;16.58
66403;BMP180;53212;52.112;5.144;2022-08-19T04:52:38;101347.20;;;16.70
66403;BMP180;53212;52.112;5.144;2022-08-19T04:55:14;101357.60;;;16.70
66403;BMP180;53212;52.112;5.144;2022-08-19T04:57:40;101359.20;;;16.80
66403;BMP180;53212;52.112;5.144;2022-08-19T05:00:09;101358.60;;;16.90
66403;BMP180;53212;52.112;5.144;2022-08-19T05:02:39;101357.20;;;17.00
66403;BMP180;53212;52.112;5.144;2022-08-19T05:05:06;101359.40;;;17.02
66403;BMP180;53212;52.112;5.144;2022-08-19T05:07:37;101366.60;;;17.18
66403;BMP180;53212;52.112;5.144;2022-08-19T05:10:06;101368.80;;;17.26
66403;BMP180;53212;52.112;5.144;2022-08-19T05:16:24;101373.00;;;17.40
66403;BMP180;53212;52.112;5.144;2022-08-19T05:18:57;101380.60;;;17.50
66403;BMP180;53212;52.112;5.144;2022-08-19T05:21:45;101384.40;;;17.60
66403;BMP180;53212;52.112;5.144;2022-08-19T05:24:38;101383.80;;;17.70
66403;BMP180;53212;52.112;5.144;2022-08-19T05:28:16;101378.60;;;17.84
66403;BMP180;53212;52.112;5.144;2022-08-19T05:31:03;101372.80;;;18.00
66403;BMP180;53212;52.112;5.144;2022-08-19T05:33:42;101369.40;;;18.10
66403;BMP180;53212;52.112;5.144;2022-08-19T05:36:15;101371.20;;;18.20
66403;BMP180;53212;52.112;5.144;2022-08-19T05:38:44;101370.20;;;18.34
66403;BMP180;53212;52.112;5.144;2022-08-19T05:41:20;101377.40;;;18.42
66403;BMP180;53212;52.112;5.144;2022-08-19T05:43:55;101377.00;;;18.60
66403;BMP180;53212;52.112;5.144;2022-08-19T05:46:24;101375.00;;;18.70
66403;BMP180;53212;52.112;5.144;2022-08-19T05:48:55;101372.40;;;18.90
66403;BMP180;53212;52.112;5.144;2022-08-19T05:51:24;101373.40;;;18.98
66403;BMP180;53212;52.112;5.144;2022-08-19T05:53:59;101372.40;;;19.10
66403;BMP180;53212;52.112;5.144;2022-08-19T05:56:30;101365.60;;;19.20
66403;BMP180;53212;52.112;5.144;2022-08-19T05:58:59;101367.00;;;19.34
66403;BMP180;53212;52.112;5.144;2022-08-19T06:01:32;101368.20;;;19.44
66403;BMP180;53212;52.112;5.144;2022-08-19T06:04:02;101365.00;;;19.40
66403;BMP180;53212;52.112;5.144;2022-08-19T06:06:43;101362.60;;;19.34
66403;BMP180;53212;52.112;5.144;2022-08-19T06:09:19;101363.40;;;19.24
66403;BMP180;53212;52.112;5.144;2022-08-19T06:12:00;101368.20;;;19.10
66403;BMP180;53212;52.112;5.144;2022-08-19T06:14:34;101375.00;;;19.10
66403;BMP180;53212;52.112;5.144;2022-08-19T06:17:05;101378.40;;;18.98
66403;BMP180;53212;52.112;5.144;2022-08-19T06:19:53;101377.00;;;18.90
66403;BMP180;53212;52.112;5.144;2022-08-19T06:22:22;101379.20;;;19.00
66403;BMP180;53212;52.112;5.144;2022-08-19T06:24:54;101380.60;;;18.92
66403;BMP180;53212;52.112;5.144;2022-08-19T06:27:25;101380.00;;;18.90
66403;BMP180;53212;52.112;5.144;2022-08-19T06:29:51;101378.00;;;18.92
66403;BMP180;53212;52.112;5.144;2022-08-19T06:32:27;101375.20;;;18.90
66403;BMP180;53212;52.112;5.144;2022-08-19T06:34:58;101372.80;;;18.90
66403;BMP180;53212;52.112;5.144;2022-08-19T06:37:25;101385.80;;;18.90
66403;BMP180;53212;52.112;5.144;2022-08-19T06:39:57;101385.00;;;18.90
66403;BMP180;53212;52.112;5.144;2022-08-19T06:42:34;101386.20;;;19.00
66403;BMP180;53212;52.112;5.144;2022-08-19T06:45:09;101382.00;;;19.10
66403;BMP180;53212;52.112;5.144;2022-08-19T06:47:40;101381.80;;;19.20
66403;BMP180;53212;52.112;5.144;2022-08-19T06:50:14;101378.20;;;19.30
66403;BMP180;53212;52.112;5.144;2022-08-19T06:52:39;101379.00;;;19.40
66403;BMP180;53212;52.112;5.144;2022-08-19T06:55:06;101375.80;;;19.60
66403;BMP180;53212;52.112;5.144;2022-08-19T06:57:49;101383.40;;;19.88
66403;BMP180;53212;52.112;5.144;2022-08-19T07:00:18;101384.00;;;20.08
66403;BMP180;53212;52.112;5.144;2022-08-19T07:02:44;101382.00;;;20.20
66403;BMP180;53212;52.112;5.144;2022-08-19T07:05:15;101383.40;;;20.40
66403;BMP180;53212;52.112;5.144;2022-08-19T07:07:43;101383.40;;;20.58
66403;BMP180;53212;52.112;5.144;2022-08-19T07:10:11;101386.00;;;20.76
66403;BMP180;53212;52.112;5.144;2022-08-19T07:12:37;101383.80;;;20.90
66403;BMP180;53212;52.112;5.144;2022-08-19T07:15:05;101391.40;;;20.90
66403;BMP180;53212;52.112;5.144;2022-08-19T07:17:32;101387.40;;;21.00
66403;BMP180;53212;52.112;5.144;2022-08-19T07:19:58;101391.20;;;21.10
66403;BMP180;53212;52.112;5.144;2022-08-19T07:22:24;101395.40;;;21.10
66403;BMP180;53212;52.112;5.144;2022-08-19T07:25:00;101399.60;;;21.10
66403;BMP180;53212;52.112;5.144;2022-08-19T07:27:31;101399.60;;;21.16
66403;BMP180;53212;52.112;5.144;2022-08-19T07:30:17;101401.20;;;21.20
66403;BMP180;53212;52.112;5.144;2022-08-19T07:32:50;101401.60;;;21.20
66403;BMP180;53212;52.112;5.144;2022-08-19T07:35:25;101401.20;;;21.18
66403;BMP180;53212;52.112;5.144;2022-08-19T07:37:53;101405.20;;;21.20
66403;BMP180;53212;52.112;5.144;2022-08-19T07:40:25;101402.80;;;21.10
66403;BMP180;53212;52.112;5.144;2022-08-19T07:42:51;101402.20;;;21.14
66403;BMP180;53212;52.112;5.144;2022-08-19T07:45:54;101400.40;;;21.20
66403;BMP180;53212;52.112;5.144;2022-08-19T07:48:25;101409.00;;;21.30
66403;BMP180;53212;52.112;5.144;2022-08-19T07:54:36;101409.80;;;21.56
66403;BMP180;53212;52.112;5.144;2022-08-19T07:57:23;101414.60;;;21.70
66403;BMP180;53212;52.112;5.144;2022-08-19T07:59:58;101421.20;;;21.72
66403;BMP180;53212;52.112;5.144;2022-08-19T08:06:18;101417.00;;;22.10
66403;BMP180;53212;52.112;5.144;2022-08-19T08:09:16;101421.40;;;22.32
66403;BMP180;53212;52.112;5.144;2022-08-19T08:12:19;101423.40;;;22.40
66403;BMP180;53212;52.112;5.144;2022-08-19T08:15:16;101423.40;;;22.44
66403;BMP180;53212;52.112;5.144;2022-08-19T08:17:45;101426.60;;;22.44
66403;BMP180;53212;52.112;5.144;2022-08-19T08:20:13;101437.80;;;22.22
66403;BMP180;53212;52.112;5.144;2022-08-19T08:22:46;101446.80;;;22.22
66403;BMP180;53212;52.112;5.144;2022-08-19T08:25:57;101444.80;;;22.40
66403;BMP180;53212;52.112;5.144;2022-08-19T08:28:36;101443.00;;;22.60
66403;BMP180;53212;52.112;5.144;2022-08-19T08:31:06;101439.60;;;22.82
66403;BMP180;53212;52.112;5.144;2022-08-19T08:33:37;101432.20;;;22.90
66403;BMP180;53212;52.112;5.144;2022-08-19T08:36:08;101434.80;;;23.00
66403;BMP180;53212;52.112;5.144;2022-08-19T08:42:50;101439.80;;;23.20
66403;BMP180;53212;52.112;5.144;2022-08-19T08:45:23;101441.20;;;23.30
66403;BMP180;53212;52.112;5.144;2022-08-19T08:48:13;101437.80;;;23.30
66403;BMP180;53212;52.112;5.144;2022-08-19T08:55:00;101442.20;;;24.00
66403;BMP180;53212;52.112;5.144;2022-08-19T09:02:51;101447.80;;;24.20
66403;BMP180;53212;52.112;5.144;2022-08-19T09:06:23;101442.40;;;24.22
66403;BMP180;53212;52.112;5.144;2022-08-19T09:15:30;101443.40;;;24.70
66403;BMP180;53212;52.112;5.144;2022-08-19T09:18:08;101441.20;;;24.60
66403;BMP180;53212;52.112;5.144;2022-08-19T09:24:35;101447.20;;;24.50
66403;BMP180;53212;52.112;5.144;2022-08-19T09:27:15;101451.60;;;24.50
66403;BMP180;53212;52.112;5.144;2022-08-19T09:34:06;101457.60;;;24.40
66403;BMP180;53212;52.112;5.144;2022-08-19T09:36:54;101459.00;;;24.20
66403;BMP180;53212;52.112;5.144;2022-08-19T09:40:13;101456.40;;;24.40
66403;BMP180;53212;52.112;5.144;2022-08-19T09:42:47;101460.60;;;24.70
66403;BMP180;53212;52.112;5.144;2022-08-19T09:45:38;101464.20;;;24.80
66403;BMP180;53212;52.112;5.144;2022-08-19T09:48:17;101464.80;;;24.80
66403;BMP180;53212;52.112;5.144;2022-08-19T09:51:04;101459.20;;;24.80
66403;BMP180;53212;52.112;5.144;2022-08-19T09:53:44;101461.80;;;24.70
66403;BMP180;53212;52.112;5.144;2022-08-19T10:00:24;101457.80;;;25.40
66403;BMP180;53212;52.112;5.144;2022-08-19T10:11:03;101461.40;;;26.00
66403;BMP180;53212;52.112;5.144;2022-08-19T10:14:18;101458.60;;;25.90
66403;BMP180;53212;52.112;5.144;2022-08-19T10:16:55;101456.40;;;25.80
66403;BMP180;53212;52.112;5.144;2022-08-19T10:19:25;101455.40;;;25.64
66403;BMP180;53212;52.112;5.144;2022-08-19T10:22:44;101450.40;;;25.70
66403;BMP180;53212;52.112;5.144;2022-08-19T10:28:40;101449.40;;;25.86
66403;BMP180;53212;52.112;5.144;2022-08-19T10:39:03;101446.00;;;26.44
66403;BMP180;53212;52.112;5.144;2022-08-19T10:42:28;101452.60;;;26.50
66403;BMP180;53212;52.112;5.144;2022-08-19T10:45:14;101452.60;;;26.60
66403;BMP180;53212;52.112;5.144;2022-08-19T11:00:08;101444.60;;;26.60
66403;BMP180;53212;52.112;5.144;2022-08-19T11:07:05;101438.40;;;26.80
66403;BMP180;53212;52.112;5.144;2022-08-19T11:10:05;101434.00;;;26.98
66403;BMP180;53212;52.112;5.144;2022-08-19T11:13:30;101440.00;;;27.20
66403;BMP180;53212;52.112;5.144;2022-08-19T11:38:13;101441.40;;;25.66
66403;BMP180;53212;52.112;5.144;2022-08-19T11:56:26;101444.20;;;25.90
66403;BMP180;53212;52.112;5.144;2022-08-19T11:59:53;101451.60;;;26.00
66403;BMP180;53212;52.112;5.144;2022-08-19T12:36:33;101441.00;;;27.40
66403;BMP180;53212;52.112;5.144;2022-08-19T12:43:37;101438.80;;;26.72
66403;BMP180;53212;52.112;5.144;2022-08-19T12:51:17;101440.80;;;26.40
66403;BMP180;53212;52.112;5.144;2022-08-19T12:58:52;101450.80;;;25.90
66403;BMP180;53212;52.112;5.144;2022-08-19T13:06:01;101438.00;;;25.70
66403;BMP180;53212;52.112;5.144;2022-08-19T13:08:56;101436.20;;;25.80
66403;BMP180;53212;52.112;5.144;2022-08-19T13:19:07;101428.80;;;26.20
66403;BMP180;53212;52.112;5.144;2022-08-19T13:26:29;101431.40;;;26.00
